createdAt,value
2023-03-05T00:01:09.661Z,71.44
2023-03-05T00:03:41.685Z,71.34
2023-03-05T00:06:13.643Z,71.19
2023-03-05T00:08:46.118Z,70.93
2023-03-05T00:11:18.363Z,71.13
2023-03-05T00:13:54.836Z,71.12
2023-03-05T00:16:28.455Z,71.01
2023-03-05T00:19:01.757Z,71.08
2023-03-05T00:21:36.577Z,71.17
2023-03-05T00:24:11.416Z,70.93
2023-03-05T00:26:43.471Z,71.32
2023-03-05T00:29:19.708Z,71.44
2023-03-05T00:31:52.109Z,71.37
2023-03-05T00:34:26.138Z,71.46
2023-03-05T00:36:58.277Z,71.37
2023-03-05T00:39:30.430Z,71.37
2023-03-05T00:42:02.635Z,71.01
2023-03-05T00:44:34.703Z,70.65
2023-03-05T00:47:06.873Z,70.82
2023-03-05T00:49:38.855Z,70.96
2023-03-05T00:52:10.662Z,70.75
2023-03-05T00:54:42.478Z,70.73
2023-03-05T00:57:17.531Z,71.04
2023-03-05T00:59:51.089Z,70.86
2023-03-05T01:02:22.996Z,70.57
2023-03-05T01:04:55.604Z,70.79
2023-03-05T01:07:27.839Z,70.66
2023-03-05T01:10:00.399Z,70.78
2023-03-05T01:12:33.033Z,70.62
2023-03-05T01:15:06.417Z,70.24
2023-03-05T01:17:38.843Z,70.49
2023-03-05T01:20:12.858Z,70.17
2023-03-05T01:22:45.182Z,70.24
2023-03-05T01:25:19.204Z,70.48
2023-03-05T01:27:51.242Z,70.31
2023-03-05T01:30:23.332Z,70.18
2023-03-05T01:32:56.606Z,70.14
2023-03-05T01:35:29.108Z,70.19
2023-03-05T01:38:01.376Z,70.20
2023-03-05T01:40:33.581Z,70.70
2023-03-05T01:43:11.468Z,70.76
2023-03-05T01:46:19.592Z,70.81
2023-03-05T01:48:54.452Z,70.19
2023-03-05T01:51:29.441Z,70.16
2023-03-05T01:54:03.496Z,69.92
2023-03-05T01:56:34.804Z,70.16
2023-03-05T01:59:06.937Z,70.20
2023-03-05T02:01:41.983Z,69.92
2023-03-05T02:04:17.014Z,70.01
2023-03-05T02:06:49.966Z,70.14
2023-03-05T02:09:24.046Z,70.08
2023-03-05T02:11:56.120Z,70.13
2023-03-05T02:14:29.204Z,70.44
2023-03-05T02:17:01.522Z,69.79
2023-03-05T02:19:48.461Z,69.66
2023-03-05T02:22:23.068Z,69.74
2023-03-05T02:24:56.022Z,69.87
2023-03-05T02:27:36.612Z,69.93
2023-03-05T02:30:10.030Z,70.06
2023-03-05T02:32:42.109Z,69.86
2023-03-05T02:35:14.539Z,70.05
2023-03-05T02:37:46.981Z,70.08
2023-03-05T02:40:18.929Z,70.16
2023-03-05T02:42:51.050Z,70.04
2023-03-05T02:45:23.068Z,70.36
2023-03-05T02:47:55.451Z,70.45
2023-03-05T02:50:29.343Z,70.51
2023-03-05T02:53:01.242Z,70.54
2023-03-05T02:55:33.654Z,70.85
2023-03-05T02:58:06.013Z,70.87
2023-03-05T03:00:37.951Z,70.95
2023-03-05T03:03:10.417Z,71.20
2023-03-05T03:05:42.855Z,71.46
2023-03-05T03:08:15.387Z,71.72
2023-03-05T03:10:47.378Z,71.95
2023-03-05T03:13:19.343Z,71.95
2023-03-05T03:15:52.462Z,71.89
2023-03-05T03:18:24.429Z,71.89
2023-03-05T03:20:56.518Z,72.08
2023-03-05T03:23:28.974Z,72.30
2023-03-05T03:26:01.047Z,72.62
2023-03-05T03:28:33.410Z,72.97
2023-03-05T03:31:06.759Z,73.21
2023-03-05T03:33:38.992Z,73.22
2023-03-05T03:36:11.649Z,73.32
2023-03-05T03:38:44.072Z,73.52
2023-03-05T03:41:19.067Z,73.58
2023-03-05T03:43:50.986Z,73.71
2023-03-05T03:46:23.330Z,73.87
2023-03-05T03:48:55.643Z,74.03
2023-03-05T03:51:27.653Z,74.18
2023-03-05T03:54:00.481Z,74.22
2023-03-05T03:56:32.584Z,74.42
2023-03-05T03:59:05.061Z,74.49
2023-03-05T04:01:38.129Z,74.65
2023-03-05T04:04:11.554Z,74.75
2023-03-05T04:06:43.950Z,75.02
2023-03-05T04:09:16.156Z,75.10
2023-03-05T04:11:48.705Z,75.13
2023-03-05T04:14:20.919Z,75.14
2023-03-05T04:16:52.714Z,75.17
2023-03-05T04:19:25.099Z,75.30
2023-03-05T04:21:56.931Z,75.36
2023-03-05T04:24:28.975Z,75.34
2023-03-05T04:27:01.038Z,75.35
2023-03-05T04:29:33.098Z,75.30
2023-03-05T04:32:05.337Z,75.14
2023-03-05T04:34:39.268Z,75.31
2023-03-05T04:37:11.356Z,75.07
2023-03-05T04:39:43.965Z,75.23
2023-03-05T04:42:16.407Z,75.16
2023-03-05T04:44:50.073Z,75.18
2023-03-05T04:47:22.314Z,75.03
2023-03-05T04:49:54.306Z,75.07
2023-03-05T04:52:26.320Z,74.79
2023-03-05T04:54:59.050Z,74.11
2023-03-05T04:57:32.594Z,74.52
2023-03-05T05:00:07.934Z,74.26
2023-03-05T05:02:40.027Z,73.78
2023-03-05T05:05:14.596Z,74.14
2023-03-05T05:07:47.243Z,73.90
2023-03-05T05:10:19.215Z,73.05
2023-03-05T05:12:51.168Z,73.07
2023-03-05T05:15:23.413Z,72.64
2023-03-05T05:17:55.940Z,72.73
2023-03-05T05:20:28.335Z,72.73
2023-03-05T05:23:00.621Z,72.47
2023-03-05T05:25:33.179Z,72.22
2023-03-05T05:28:06.154Z,72.01
2023-03-05T05:30:38.875Z,72.02
2023-03-05T05:33:11.233Z,72.15
2023-03-05T05:35:43.373Z,72.06
2023-03-05T05:38:15.380Z,72.30
2023-03-05T05:40:47.556Z,72.28
2023-03-05T05:43:19.715Z,72.47
2023-03-05T05:45:51.849Z,72.71
2023-03-05T05:48:24.918Z,72.72
2023-03-05T05:50:57.200Z,72.52
2023-03-05T05:53:29.781Z,72.87
2023-03-05T05:56:01.960Z,72.61
2023-03-05T05:58:34.353Z,72.92
2023-03-05T06:01:21.536Z,73.11
2023-03-05T06:03:53.794Z,73.17
2023-03-05T06:06:27.790Z,73.21
2023-03-05T06:08:59.836Z,73.32
2023-03-05T06:11:33.825Z,73.47
2023-03-05T06:14:07.859Z,73.64
2023-03-05T06:16:40.366Z,73.57
2023-03-05T06:19:16.730Z,73.67
2023-03-05T06:21:48.622Z,73.68
2023-03-05T06:24:20.532Z,73.44
2023-03-05T06:26:52.787Z,73.53
2023-03-05T06:29:24.716Z,73.85
2023-03-05T06:31:57.081Z,74.03
2023-03-05T06:34:29.703Z,74.27
2023-03-05T06:37:02.008Z,74.10
2023-03-05T06:39:34.309Z,74.57
2023-03-05T06:42:07.054Z,74.35
2023-03-05T06:44:42.689Z,74.26
2023-03-05T06:47:14.774Z,74.04
2023-03-05T06:49:47.003Z,73.96
2023-03-05T06:52:19.423Z,74.10
2023-03-05T06:54:52.913Z,74.45
2023-03-05T06:57:25.873Z,74.43
2023-03-05T06:59:58.353Z,73.54
2023-03-05T07:02:32.812Z,73.90
2023-03-05T07:05:05.199Z,73.51
2023-03-05T07:07:37.960Z,73.58
2023-03-05T07:10:11.113Z,73.92
2023-03-05T07:12:43.660Z,73.72
2023-03-05T07:15:15.736Z,73.51
2023-03-05T07:17:47.753Z,73.75
2023-03-05T07:20:19.754Z,73.55
2023-03-05T07:22:52.067Z,73.45
2023-03-05T07:25:24.699Z,73.50
2023-03-05T07:27:57.002Z,73.63
2023-03-05T07:30:29.056Z,73.67
2023-03-05T07:33:02.625Z,73.64
2023-03-05T07:35:35.226Z,73.82
2023-03-05T07:38:07.403Z,73.78
2023-03-05T07:40:39.608Z,73.76
2023-03-05T07:43:11.676Z,73.60
2023-03-05T07:45:45.876Z,73.43
2023-03-05T07:48:21.933Z,73.24
2023-03-05T07:51:02.420Z,73.44
2023-03-05T07:53:35.067Z,73.80
2023-03-05T07:56:07.738Z,73.85
2023-03-05T07:58:40.346Z,73.80
2023-03-05T08:01:15.597Z,73.93
2023-03-05T08:03:47.819Z,73.66
2023-03-05T08:06:19.836Z,73.62
2023-03-05T08:08:52.171Z,73.33
2023-03-05T08:11:24.466Z,73.44
2023-03-05T08:13:58.049Z,73.29
2023-03-05T08:16:29.926Z,73.43
2023-03-05T08:19:02.808Z,73.25
2023-03-05T08:21:37.314Z,72.69
2023-03-05T08:24:10.456Z,72.41
2023-03-05T08:26:42.923Z,73.03
2023-03-05T08:29:15.430Z,73.18
2023-03-05T08:31:48.888Z,72.64
2023-03-05T08:34:23.517Z,72.41
2023-03-05T08:36:55.572Z,72.44
2023-03-05T08:39:27.971Z,72.27
2023-03-05T08:41:59.708Z,72.29
2023-03-05T08:44:31.894Z,72.25
2023-03-05T08:47:03.815Z,71.79
2023-03-05T08:49:36.027Z,71.90
2023-03-05T08:52:08.492Z,71.64
2023-03-05T08:54:40.437Z,70.95
2023-03-05T08:57:12.457Z,70.66
2023-03-05T08:59:44.746Z,70.17
2023-03-05T09:02:16.780Z,69.90
2023-03-05T09:04:48.800Z,69.48
2023-03-05T09:07:21.112Z,68.87
2023-03-05T09:09:53.338Z,70.00
2023-03-05T09:12:25.783Z,70.24
2023-03-05T09:14:58.545Z,70.00
2023-03-05T09:17:32.347Z,70.17
2023-03-05T09:20:06.362Z,70.51
2023-03-05T09:22:38.401Z,70.39
2023-03-05T09:25:12.810Z,70.84
2023-03-05T09:27:45.681Z,70.58
2023-03-05T09:30:18.212Z,71.55
2023-03-05T09:32:51.403Z,69.78
2023-03-05T09:35:24.220Z,69.39
2023-03-05T09:37:56.722Z,69.88
2023-03-05T09:40:35.228Z,70.96
2023-03-05T09:43:16.021Z,70.60
2023-03-05T09:46:09.036Z,71.34
2023-03-05T09:48:44.470Z,70.72
2023-03-05T09:51:19.581Z,70.39
2023-03-05T09:54:10.558Z,70.02
2023-03-05T09:56:46.017Z,69.02
2023-03-05T09:59:28.683Z,69.51
2023-03-05T10:02:04.346Z,69.43
2023-03-05T10:04:48.141Z,69.38
2023-03-05T10:07:32.078Z,69.43
2023-03-05T10:10:08.531Z,69.38
2023-03-05T10:12:47.954Z,68.98
2023-03-05T10:15:31.917Z,69.01
2023-03-05T10:18:15.072Z,68.74
2023-03-05T10:21:01.908Z,68.77
2023-03-05T10:23:55.257Z,67.13
2023-03-05T10:26:45.993Z,66.92
2023-03-05T10:29:30.123Z,66.62
2023-03-05T10:32:21.615Z,65.73
2023-03-05T10:35:05.749Z,65.42
2023-03-05T10:38:03.816Z,65.70
2023-03-05T10:40:42.557Z,66.20
2023-03-05T10:43:29.826Z,65.83
2023-03-05T10:46:05.120Z,65.47
2023-03-05T10:48:46.085Z,65.74
2023-03-05T10:51:36.013Z,65.45
2023-03-05T10:54:31.796Z,66.29
2023-03-05T10:57:25.144Z,65.56
2023-03-05T11:00:03.646Z,66.12
2023-03-05T11:02:35.818Z,66.50
2023-03-05T11:05:11.158Z,66.84
2023-03-05T11:07:43.276Z,66.95
2023-03-05T11:10:21.683Z,67.27
2023-03-05T11:12:55.899Z,67.63
2023-03-05T11:15:28.620Z,67.82
2023-03-05T11:18:19.664Z,68.45
2023-03-05T11:20:52.550Z,68.96
2023-03-05T11:23:25.880Z,68.64
2023-03-05T11:26:15.903Z,68.74
2023-03-05T11:28:57.194Z,68.67
2023-03-05T11:31:31.741Z,69.04
2023-03-05T11:34:23.527Z,68.46
2023-03-05T11:36:58.925Z,68.64
2023-03-05T11:39:33.636Z,68.38
2023-03-05T11:42:14.761Z,68.39
2023-03-05T11:44:53.682Z,68.23
2023-03-05T11:47:34.402Z,67.73
2023-03-05T11:50:27.413Z,67.74
2023-03-05T11:53:09.827Z,66.62
2023-03-05T11:55:47.644Z,67.01
2023-03-05T11:58:37.015Z,66.28
2023-03-05T12:01:17.706Z,65.81
2023-03-05T12:03:52.018Z,65.15
2023-03-05T12:06:42.629Z,64.71
2023-03-05T12:09:43.383Z,64.70
2023-03-05T12:12:36.387Z,65.00
2023-03-05T12:15:20.208Z,64.92
2023-03-05T12:18:20.254Z,64.37
2023-03-05T12:21:01.233Z,64.32
2023-03-05T12:23:47.899Z,63.80
2023-03-05T12:26:21.652Z,63.33
2023-03-05T12:28:58.118Z,63.84
2023-03-05T12:31:42.891Z,64.40
2023-03-05T12:34:39.272Z,64.24
2023-03-05T12:37:13.384Z,64.48
2023-03-05T12:39:52.811Z,64.62
2023-03-05T12:42:34.093Z,64.87
2023-03-05T12:45:16.383Z,65.17
2023-03-05T12:47:50.142Z,65.70
2023-03-05T12:50:40.052Z,65.51
2023-03-05T12:53:20.851Z,64.52
2023-03-05T12:56:04.562Z,65.08
2023-03-05T12:58:42.941Z,65.05
2023-03-05T13:01:29.948Z,64.92
2023-03-05T13:04:08.893Z,65.70
2023-03-05T13:06:41.055Z,64.95
2023-03-05T13:09:31.885Z,65.35
2023-03-05T13:12:07.303Z,65.42
2023-03-05T13:14:45.485Z,65.25
2023-03-05T13:17:38.410Z,64.93
2023-03-05T13:20:29.515Z,64.58
2023-03-05T13:23:20.677Z,64.96
2023-03-05T13:26:01.372Z,65.14
2023-03-05T13:28:36.053Z,65.39
2023-03-05T13:31:18.358Z,65.68
2023-03-05T13:33:56.475Z,66.02
2023-03-05T13:36:28.809Z,66.07
2023-03-05T13:39:02.432Z,66.49
2023-03-05T13:41:34.356Z,66.72
2023-03-05T13:44:06.655Z,66.89
2023-03-05T13:46:40.041Z,66.92
2023-03-05T13:49:24.201Z,66.79
2023-03-05T13:51:59.725Z,66.80
2023-03-05T13:54:32.187Z,66.82
2023-03-05T13:57:07.605Z,67.24
2023-03-05T13:59:39.846Z,65.84
2023-03-05T14:02:21.525Z,65.12
2023-03-05T14:04:55.346Z,64.81
2023-03-05T14:07:34.091Z,64.42
2023-03-05T14:10:34.748Z,64.33
2023-03-05T14:13:23.773Z,64.38
2023-03-05T14:16:09.985Z,64.48
2023-03-05T14:18:57.162Z,64.48
2023-03-05T14:21:46.765Z,64.37
2023-03-05T14:24:28.722Z,64.57
2023-03-05T14:27:05.420Z,64.10
2023-03-05T14:29:38.586Z,63.84
2023-03-05T14:32:13.624Z,63.52
2023-03-05T14:34:48.946Z,64.42
2023-03-05T14:37:26.735Z,64.86
2023-03-05T14:40:07.447Z,65.08
2023-03-05T14:42:54.107Z,65.34
2023-03-05T14:45:28.939Z,66.17
2023-03-05T14:48:03.533Z,66.59
2023-03-05T14:50:40.932Z,66.46
2023-03-05T14:53:16.206Z,66.38
2023-03-05T14:55:51.051Z,66.18
2023-03-05T14:58:26.198Z,65.24
2023-03-05T15:00:58.564Z,65.70
2023-03-05T15:03:30.677Z,65.74
2023-03-05T15:06:03.498Z,65.29
2023-03-05T15:08:36.094Z,65.69
2023-03-05T15:11:10.502Z,65.92
2023-03-05T15:13:42.519Z,66.05
2023-03-05T15:16:16.937Z,66.57
2023-03-05T15:18:49.324Z,66.82
2023-03-05T15:21:21.318Z,66.79
2023-03-05T15:23:53.276Z,66.67
2023-03-05T15:26:25.301Z,66.73
2023-03-05T15:31:30.349Z,66.04
2023-03-05T15:34:02.424Z,66.35
2023-03-05T15:36:34.374Z,66.45
2023-03-05T15:39:06.432Z,66.54
2023-03-05T15:41:38.589Z,66.64
2023-03-05T15:44:10.658Z,66.73
2023-03-05T15:46:43.000Z,67.15
2023-03-05T15:49:15.801Z,67.15
2023-03-05T15:51:47.808Z,67.31
2023-03-05T15:54:20.479Z,66.64
2023-03-05T15:56:52.989Z,66.37
2023-03-05T15:59:25.323Z,66.39
2023-03-05T16:01:57.307Z,66.67
2023-03-05T16:04:31.106Z,66.49
2023-03-05T16:07:16.821Z,67.20
2023-03-05T16:09:51.085Z,66.56
2023-03-05T16:12:26.307Z,66.36
2023-03-05T16:15:00.353Z,66.49
2023-03-05T16:17:33.598Z,66.22
2023-03-05T16:20:08.085Z,66.41
2023-03-05T16:22:40.304Z,66.57
2023-03-05T16:25:14.107Z,66.59
2023-03-05T16:27:46.908Z,66.44
2023-03-05T16:30:19.445Z,65.85
2023-03-05T16:32:53.613Z,66.16
2023-03-05T16:35:25.801Z,65.93
2023-03-05T16:37:57.886Z,65.86
2023-03-05T16:40:56.555Z,65.70
2023-03-05T16:43:03.386Z,65.78
2023-03-05T16:45:37.419Z,66.82
2023-03-05T16:48:08.601Z,65.84
2023-03-05T16:50:40.244Z,66.74
2023-03-05T16:53:12.242Z,65.35
2023-03-05T16:55:44.117Z,65.60
2023-03-05T16:58:16.252Z,65.26
2023-03-05T17:00:49.114Z,65.60
2023-03-05T17:03:21.444Z,65.58
2023-03-05T17:05:53.737Z,65.40
2023-03-05T17:08:25.952Z,65.29
2023-03-05T17:10:58.126Z,64.87
2023-03-05T17:13:30.065Z,65.02
2023-03-05T17:16:02.204Z,65.95
2023-03-05T17:18:35.038Z,66.91
2023-03-05T17:21:07.808Z,66.90
2023-03-05T17:23:42.265Z,66.42
2023-03-05T17:26:17.913Z,65.57
2023-03-05T17:28:50.261Z,65.62
2023-03-05T17:31:22.357Z,66.35
2023-03-05T17:33:57.500Z,66.21
2023-03-05T17:36:29.658Z,66.24
2023-03-05T17:39:01.974Z,66.53
2023-03-05T17:41:34.022Z,66.83
2023-03-05T17:44:06.211Z,67.04
2023-03-05T17:46:38.150Z,66.87
2023-03-05T17:49:10.125Z,66.99
2023-03-05T17:51:42.127Z,67.08
2023-03-05T17:54:14.355Z,67.00
2023-03-05T17:56:48.127Z,66.66
2023-03-05T17:59:20.208Z,66.62
2023-03-05T18:01:52.564Z,66.54
2023-03-05T18:04:24.643Z,66.83
2023-03-05T18:06:57.433Z,67.05
2023-03-05T18:09:29.538Z,66.79
2023-03-05T18:12:01.685Z,66.89
2023-03-05T18:14:34.543Z,66.89
2023-03-05T18:17:06.721Z,66.75
2023-03-05T18:19:38.680Z,66.73
2023-03-05T18:22:10.550Z,66.90
2023-03-05T18:24:42.773Z,66.93
2023-03-05T18:27:15.520Z,66.73
2023-03-05T18:29:47.696Z,66.82
2023-03-05T18:32:19.680Z,66.54
2023-03-05T18:34:51.935Z,66.08
2023-03-05T18:37:23.972Z,66.03
2023-03-05T18:39:58.184Z,66.17
2023-03-05T18:42:30.382Z,66.04
2023-03-05T18:45:02.429Z,66.75
2023-03-05T18:47:35.353Z,65.99
2023-03-05T18:50:09.375Z,65.82
2023-03-05T18:52:42.267Z,66.15
2023-03-05T18:55:23.054Z,66.58
2023-03-05T18:57:55.840Z,66.74
2023-03-05T19:00:30.897Z,67.25
2023-03-05T19:03:03.590Z,67.44
2023-03-05T19:05:36.264Z,67.75
2023-03-05T19:08:08.527Z,68.14
2023-03-05T19:10:41.281Z,68.34
2023-03-05T19:13:43.748Z,68.70
2023-03-05T19:16:18.857Z,68.96
2023-03-05T19:19:19.388Z,69.05
2023-03-05T19:21:58.230Z,69.07
2023-03-05T19:24:32.543Z,69.15
2023-03-05T19:27:06.444Z,69.52
2023-03-05T19:29:40.344Z,69.73
2023-03-05T19:32:16.069Z,69.95
2023-03-05T19:34:48.157Z,70.20
2023-03-05T19:37:19.984Z,70.49
2023-03-05T19:39:52.256Z,71.03
2023-03-05T19:42:24.246Z,71.34
2023-03-05T19:44:58.378Z,71.46
2023-03-05T19:47:29.959Z,71.79
2023-03-05T19:50:01.793Z,72.01
2023-03-05T19:52:33.670Z,72.32
2023-03-05T19:55:06.037Z,72.58
2023-03-05T19:57:38.130Z,72.73
2023-03-05T20:00:10.795Z,72.88
2023-03-05T20:02:42.912Z,72.99
2023-03-05T20:05:15.186Z,72.95
2023-03-05T20:07:47.207Z,72.95
2023-03-05T20:10:19.223Z,72.69
2023-03-05T20:12:51.705Z,72.54
2023-03-05T20:15:23.645Z,72.42
2023-03-05T20:17:55.826Z,71.96
2023-03-05T20:20:28.931Z,71.80
2023-03-05T20:23:00.930Z,71.66
2023-03-05T20:25:32.943Z,71.66
2023-03-05T20:28:04.841Z,71.65
2023-03-05T20:30:36.760Z,71.85
2023-03-05T20:33:08.925Z,71.85
2023-03-05T20:35:40.745Z,72.03
2023-03-05T20:38:28.667Z,72.04
2023-03-05T20:41:09.318Z,72.44
2023-03-05T20:43:47.684Z,72.14
2023-03-05T20:46:28.460Z,72.63
2023-03-05T20:49:02.397Z,72.76
2023-03-05T20:51:39.438Z,72.53
2023-03-05T20:54:13.744Z,72.46
2023-03-05T20:56:44.993Z,72.28
2023-03-05T20:59:17.730Z,72.16
2023-03-05T21:01:49.768Z,71.77
2023-03-05T21:04:21.995Z,72.02
2023-03-05T21:06:55.067Z,71.98
2023-03-05T21:09:28.634Z,71.97
2023-03-05T21:12:00.683Z,71.92
2023-03-05T21:14:34.298Z,71.78
2023-03-05T21:17:06.867Z,71.86
2023-03-05T21:19:39.457Z,72.06
2023-03-05T21:22:11.393Z,72.03
2023-03-05T21:25:05.286Z,71.98
2023-03-05T21:27:44.278Z,72.01
2023-03-05T21:30:17.316Z,71.97
2023-03-05T21:32:50.043Z,72.00
2023-03-05T21:35:23.741Z,71.95
2023-03-05T21:37:55.786Z,71.96
2023-03-05T21:40:28.649Z,71.97
2023-03-05T21:43:00.758Z,71.80
2023-03-05T21:45:33.280Z,71.71
2023-03-05T21:48:05.719Z,71.62
2023-03-05T21:50:43.822Z,71.67
2023-03-05T21:53:17.493Z,71.98
2023-03-05T21:56:07.365Z,72.03
2023-03-05T21:58:39.374Z,71.95
2023-03-05T22:01:14.989Z,72.22
2023-03-05T22:03:47.726Z,72.26
2023-03-05T22:06:20.670Z,72.32
2023-03-05T22:08:52.843Z,72.54
2023-03-05T22:11:24.858Z,72.59
2023-03-05T22:13:57.013Z,72.55
2023-03-05T22:16:29.794Z,72.71
2023-03-05T22:19:03.064Z,72.38
2023-03-05T22:21:36.480Z,72.58
2023-03-05T22:24:08.720Z,72.80
2023-03-05T22:26:42.309Z,72.67
2023-03-05T22:29:16.145Z,72.61
2023-03-05T22:31:48.367Z,72.60
2023-03-05T22:34:20.670Z,72.58
2023-03-05T22:36:52.783Z,72.65
2023-03-05T22:39:24.690Z,72.46
2023-03-05T22:41:57.027Z,72.61
2023-03-05T22:44:29.068Z,72.69
2023-03-05T22:47:01.133Z,72.71
2023-03-05T22:49:34.247Z,72.00
2023-03-05T22:52:06.617Z,72.29
2023-03-05T22:54:38.676Z,72.27
2023-03-05T22:57:10.812Z,72.29
2023-03-05T22:59:42.980Z,72.21
2023-03-05T23:02:15.152Z,72.06
2023-03-05T23:04:53.520Z,72.18
2023-03-05T23:07:30.906Z,72.19
2023-03-05T23:10:05.701Z,72.19
2023-03-05T23:12:41.389Z,71.76
2023-03-05T23:15:17.051Z,72.12
2023-03-05T23:17:49.322Z,72.30
2023-03-05T23:20:25.184Z,72.27
2023-03-05T23:22:57.798Z,72.33
2023-03-05T23:25:32.402Z,71.96
2023-03-05T23:28:04.900Z,71.98
2023-03-05T23:30:39.604Z,71.79
2023-03-05T23:33:17.463Z,71.70
2023-03-05T23:35:58.313Z,71.63
2023-03-05T23:38:31.311Z,71.53
2023-03-05T23:41:03.949Z,71.72
2023-03-05T23:43:36.214Z,72.10
2023-03-05T23:46:13.169Z,72.37
2023-03-05T23:48:45.105Z,72.41
2023-03-05T23:51:17.626Z,72.44
2023-03-05T23:53:49.490Z,72.68
2023-03-05T23:56:21.448Z,72.79
2023-03-05T23:58:54.889Z,72.67
